createdAt,value
2019-04-11T00:00:50.605Z,6.30
2019-04-11T00:03:19.782Z,6.32
2019-04-11T00:05:48.949Z,6.30
2019-04-11T00:08:18.145Z,6.25
2019-04-11T00:10:47.754Z,6.19
2019-04-11T00:13:23.886Z,6.23
2019-04-11T00:15:48.834Z,6.22
2019-04-11T00:18:18.655Z,6.15
2019-04-11T00:20:48.498Z,6.10
2019-04-11T00:23:18.357Z,6.11
2019-04-11T00:25:47.544Z,6.09
2019-04-11T00:28:17.406Z,6.11
2019-04-11T00:30:46.584Z,5.96
2019-04-11T00:33:16.143Z,5.97
2019-04-11T00:35:46.038Z,5.81
2019-04-11T00:38:16.022Z,5.82
2019-04-11T00:40:45.822Z,5.79
2019-04-11T00:43:28.075Z,5.75
2019-04-11T00:45:46.176Z,5.65
2019-04-11T00:48:15.466Z,5.48
2019-04-11T00:50:45.477Z,5.43
2019-04-11T00:53:15.938Z,5.31
2019-04-11T00:55:46.034Z,5.27
2019-04-11T00:58:15.394Z,5.20
2019-04-11T01:00:45.049Z,5.20
2019-04-11T01:03:14.318Z,5.23
2019-04-11T01:05:43.586Z,5.13
2019-04-11T01:08:13.670Z,5.13
2019-04-11T01:10:43.568Z,5.15
2019-04-11T01:13:14.143Z,5.06
2019-04-11T01:15:50.443Z,4.96
2019-04-11T01:18:20.709Z,4.93
2019-04-11T01:20:49.943Z,4.83
2019-04-11T01:23:19.091Z,4.83
2019-04-11T01:25:48.596Z,4.88
2019-04-11T01:28:18.557Z,4.86
2019-04-11T01:30:57.851Z,4.83
2019-04-11T01:33:27.498Z,4.90
2019-04-11T01:35:57.451Z,4.99
2019-04-11T01:38:28.268Z,5.00
2019-04-11T01:40:58.228Z,5.14
2019-04-11T01:43:28.136Z,5.05
2019-04-11T01:45:58.381Z,5.06
2019-04-11T01:48:38.210Z,5.08
2019-04-11T01:51:07.565Z,5.07
2019-04-11T01:53:37.392Z,4.98
2019-04-11T01:56:07.209Z,5.02
2019-04-11T01:58:36.485Z,4.93
2019-04-11T02:01:31.201Z,4.90
2019-04-11T02:04:15.981Z,4.87
2019-04-11T02:06:45.875Z,4.80
2019-04-11T02:09:15.962Z,4.74
2019-04-11T02:11:45.741Z,4.73
2019-04-11T02:14:16.974Z,4.78
2019-04-11T02:16:45.861Z,4.78
2019-04-11T02:19:16.225Z,4.78
2019-04-11T02:21:46.218Z,4.70
2019-04-11T02:24:32.092Z,4.59
2019-04-11T02:27:18.955Z,4.54
2019-04-11T02:29:48.878Z,4.56
2019-04-11T02:32:21.267Z,4.57
2019-04-11T02:34:50.679Z,4.52
2019-04-11T02:37:21.949Z,4.50
2019-04-11T02:39:53.535Z,4.45
2019-04-11T02:42:23.404Z,4.46
2019-04-11T02:45:09.166Z,4.47
2019-04-11T02:47:29.434Z,4.40
2019-04-11T02:49:57.266Z,4.41
2019-04-11T02:52:27.769Z,4.36
2019-04-11T02:54:57.531Z,4.37
2019-04-11T02:57:27.288Z,4.33
2019-04-11T02:59:56.585Z,4.32
2019-04-11T03:02:26.649Z,4.30
2019-04-11T03:04:56.712Z,4.29
2019-04-11T03:07:26.302Z,4.24
2019-04-11T03:09:56.702Z,4.22
2019-04-11T03:12:27.586Z,4.19
2019-04-11T03:15:21.173Z,4.12
2019-04-11T03:17:34.110Z,4.11
2019-04-11T03:20:13.300Z,4.10
2019-04-11T03:22:31.967Z,4.08
2019-04-11T03:25:03.118Z,4.08
2019-04-11T03:27:34.922Z,4.10
2019-04-11T03:30:10.064Z,4.10
2019-04-11T03:33:32.902Z,4.06
2019-04-11T03:38:00.415Z,3.96
2019-04-11T03:40:29.142Z,3.98
2019-04-11T03:42:53.899Z,4.00
2019-04-11T03:45:34.872Z,3.96
2019-04-11T03:48:00.864Z,3.99
2019-04-11T03:50:18.891Z,3.92
2019-04-11T03:52:45.171Z,3.94
2019-04-11T03:55:15.274Z,3.91
2019-04-11T03:57:46.843Z,3.87
2019-04-11T04:00:16.168Z,3.87
2019-04-11T04:02:46.742Z,3.81
2019-04-11T04:05:17.587Z,3.82
2019-04-11T04:07:48.895Z,3.79
2019-04-11T04:10:20.517Z,3.76
2019-04-11T04:12:51.468Z,3.76
2019-04-11T04:15:57.026Z,3.72
2019-04-11T04:18:29.709Z,3.66
2019-04-11T04:21:17.548Z,3.64
2019-04-11T04:23:49.631Z,3.68
2019-04-11T04:26:19.702Z,3.57
2019-04-11T04:28:49.034Z,3.53
2019-04-11T04:31:18.875Z,3.46
2019-04-11T04:33:48.159Z,3.45
2019-04-11T04:36:18.314Z,3.42
2019-04-11T04:38:48.762Z,3.40
2019-04-11T04:41:30.850Z,3.45
2019-04-11T04:43:52.791Z,3.38
2019-04-11T04:46:36.505Z,3.30
2019-04-11T04:48:54.038Z,3.34
2019-04-11T04:51:24.527Z,3.31
2019-04-11T04:53:55.523Z,3.26
2019-04-11T04:56:29.512Z,3.33
2019-04-11T04:58:56.084Z,3.27
2019-04-11T05:01:28.892Z,3.22
2019-04-11T05:03:58.895Z,3.22
2019-04-11T05:06:28.261Z,3.12
2019-04-11T05:08:58.148Z,3.05
2019-04-11T05:11:28.355Z,3.14
2019-04-11T05:13:58.733Z,3.10
2019-04-11T05:16:28.034Z,3.13
2019-04-11T05:18:58.275Z,3.17
2019-04-11T05:21:28.220Z,3.23
2019-04-11T05:23:58.485Z,3.23
2019-04-11T05:26:27.947Z,3.31
2019-04-11T05:28:57.227Z,3.28
2019-04-11T05:31:26.927Z,3.28
2019-04-11T05:33:56.413Z,3.35
2019-04-11T05:36:25.565Z,3.37
2019-04-11T05:38:54.830Z,3.41
2019-04-11T05:41:24.708Z,3.45
2019-04-11T05:43:55.743Z,3.45
2019-04-11T05:46:33.526Z,3.49
2019-04-11T05:49:05.320Z,3.49
2019-04-11T05:51:39.985Z,3.48
2019-04-11T05:54:09.157Z,3.51
2019-04-11T05:56:38.753Z,3.63
2019-04-11T05:59:16.805Z,3.61
2019-04-11T06:01:53.517Z,3.65
2019-04-11T06:04:36.327Z,3.69
2019-04-11T06:07:25.134Z,3.74
2019-04-11T06:09:58.646Z,4.02
2019-04-11T06:12:45.709Z,4.77
2019-04-11T06:15:20.336Z,4.94
2019-04-11T06:17:50.373Z,5.03
2019-04-11T06:20:39.508Z,5.16
2019-04-11T06:23:43.490Z,5.42
2019-04-11T06:26:30.510Z,5.42
2019-04-11T06:29:16.285Z,4.91
2019-04-11T06:32:03.611Z,5.00
2019-04-11T06:34:35.554Z,5.06
2019-04-11T06:37:23.695Z,4.80
2019-04-11T06:40:00.831Z,4.35
2019-04-11T06:42:39.377Z,4.33
2019-04-11T06:45:37.795Z,4.30
2019-04-11T06:48:15.793Z,4.38
2019-04-11T06:51:06.004Z,4.41
2019-04-11T06:53:38.429Z,4.62
2019-04-11T06:56:25.362Z,4.58
2019-04-11T06:59:07.966Z,4.68
2019-04-11T07:01:38.409Z,4.77
2019-04-11T07:04:15.616Z,4.82
2019-04-11T07:06:46.073Z,5.00
2019-04-11T07:09:39.270Z,4.87
2019-04-11T07:12:20.701Z,4.81
2019-04-11T07:15:16.566Z,4.89
2019-04-11T07:18:07.085Z,4.79
2019-04-11T07:21:02.996Z,4.86
2019-04-11T07:23:51.179Z,4.98
2019-04-11T07:26:37.309Z,5.03
2019-04-11T07:29:25.874Z,5.20
2019-04-11T07:32:23.052Z,5.10
2019-04-11T07:35:10.934Z,5.29
2019-04-11T07:37:41.529Z,5.14
2019-04-11T07:40:33.175Z,5.21
2019-04-11T07:43:23.234Z,5.50
2019-04-11T07:46:25.061Z,5.69
2019-04-11T07:49:06.138Z,5.88
2019-04-11T07:52:00.394Z,5.66
2019-04-11T07:54:30.354Z,5.73
2019-04-11T07:57:24.319Z,5.70
2019-04-11T08:00:11.382Z,5.75
2019-04-11T08:02:59.637Z,5.83
2019-04-11T08:06:07.508Z,5.80
2019-04-11T08:09:02.679Z,5.73
2019-04-11T08:11:40.434Z,5.74
2019-04-11T08:14:28.740Z,6.00
2019-04-11T08:17:28.213Z,5.96
2019-04-11T08:20:05.664Z,6.03
2019-04-11T08:22:37.175Z,5.94
2019-04-11T08:25:33.482Z,6.12
2019-04-11T08:28:07.639Z,6.23
2019-04-11T08:30:52.320Z,6.13
2019-04-11T08:33:22.469Z,6.23
2019-04-11T08:36:17.743Z,6.53
2019-04-11T08:38:47.307Z,6.47
2019-04-11T08:41:33.773Z,6.63
2019-04-11T08:44:11.966Z,6.41
2019-04-11T08:46:44.778Z,6.79
2019-04-11T08:49:39.731Z,6.41
2019-04-11T08:52:31.995Z,6.55
2019-04-11T08:55:17.102Z,6.77
2019-04-11T08:57:48.398Z,6.77
2019-04-11T09:00:35.971Z,7.14
2019-04-11T09:03:39.969Z,7.06
2019-04-11T09:06:28.406Z,7.52
2019-04-11T09:09:25.676Z,7.40
2019-04-11T09:11:58.241Z,7.36
2019-04-11T09:14:56.477Z,7.42
2019-04-11T09:17:32.584Z,7.63
2019-04-11T09:20:23.590Z,7.64
2019-04-11T09:22:59.727Z,7.84
2019-04-11T09:25:50.469Z,7.73
2019-04-11T09:28:30.266Z,7.51
2019-04-11T09:31:31.660Z,7.57
2019-04-11T09:34:22.234Z,7.71
2019-04-11T09:37:09.458Z,7.59
2019-04-11T09:39:57.229Z,7.80
2019-04-11T09:42:44.997Z,7.94
2019-04-11T09:45:31.038Z,8.28
2019-04-11T09:48:19.841Z,8.46
2019-04-11T09:51:09.419Z,8.14
2019-04-11T09:53:40.919Z,8.17
2019-04-11T09:56:29.162Z,8.22
2019-04-11T09:59:02.260Z,8.56
2019-04-11T10:01:49.641Z,8.52
2019-04-11T10:04:19.357Z,8.96
2019-04-11T10:07:14.083Z,8.60
2019-04-11T10:10:02.416Z,8.64
2019-04-11T10:12:49.493Z,8.45
2019-04-11T10:15:21.013Z,8.58
2019-04-11T10:18:19.596Z,8.57
2019-04-11T10:20:40.510Z,8.59
2019-04-11T10:23:24.907Z,8.91
2019-04-11T10:25:57.668Z,9.34
2019-04-11T10:28:45.764Z,9.20
2019-04-11T10:31:20.401Z,9.12
2019-04-11T10:34:14.769Z,8.93
2019-04-11T10:36:56.613Z,9.11
2019-04-11T10:39:54.108Z,9.17
2019-04-11T10:42:26.322Z,8.73
2019-04-11T10:45:06.572Z,9.19
2019-04-11T10:47:36.735Z,9.19
2019-04-11T10:50:25.668Z,9.32
2019-04-11T10:52:58.469Z,9.78
2019-04-11T10:55:53.679Z,9.63
2019-04-11T10:58:37.218Z,9.58
2019-04-11T11:01:30.058Z,9.65
2019-04-11T11:04:30.374Z,9.73
2019-04-11T11:07:04.458Z,9.51
2019-04-11T11:09:38.829Z,9.52
2019-04-11T11:12:30.806Z,9.70
2019-04-11T11:15:13.579Z,10.00
2019-04-11T11:20:50.052Z,10.06
2019-04-11T11:23:24.582Z,10.17
2019-04-11T11:26:22.682Z,9.94
2019-04-11T11:29:15.160Z,9.64
2019-04-11T11:32:07.624Z,9.91
2019-04-11T11:34:41.155Z,10.09
2019-04-11T11:37:29.228Z,9.89
2019-04-11T11:40:32.668Z,10.18
2019-04-11T11:43:19.396Z,10.02
2019-04-11T11:45:56.597Z,10.27
2019-04-11T11:48:35.406Z,10.16
2019-04-11T11:51:29.249Z,10.15
2019-04-11T11:54:20.279Z,10.14
2019-04-11T11:56:50.623Z,10.15
2019-04-11T11:59:41.118Z,10.26
2019-04-11T12:02:24.912Z,10.36
2019-04-11T12:05:12.709Z,10.58
2019-04-11T12:07:45.855Z,10.52
2019-04-11T12:10:32.876Z,10.51
2019-04-11T12:13:28.337Z,10.56
2019-04-11T12:16:10.001Z,10.24
2019-04-11T12:19:15.950Z,10.37
2019-04-11T12:21:47.221Z,10.78
2019-04-11T12:24:32.387Z,10.75
2019-04-11T12:27:21.296Z,11.15
2019-04-11T12:30:05.358Z,10.93
2019-04-11T12:32:34.644Z,10.86
2019-04-11T12:35:33.682Z,10.83
2019-04-11T12:38:11.789Z,10.99
2019-04-11T12:41:04.359Z,10.74
2019-04-11T12:43:55.561Z,10.94
2019-04-11T12:46:42.320Z,10.45
2019-04-11T12:49:27.704Z,11.03
2019-04-11T12:52:19.150Z,11.50
2019-04-11T12:54:48.547Z,11.53
2019-04-11T12:57:35.330Z,11.26
2019-04-11T13:00:12.154Z,11.35
2019-04-11T13:02:59.201Z,11.19
2019-04-11T13:05:29.002Z,11.35
2019-04-11T13:08:17.276Z,11.25
2019-04-11T13:10:47.021Z,10.70
2019-04-11T13:13:33.933Z,10.86
2019-04-11T13:16:14.194Z,11.04
2019-04-11T13:19:02.335Z,11.15
2019-04-11T13:21:50.558Z,11.05
2019-04-11T13:24:39.994Z,11.10
2019-04-11T13:27:30.858Z,11.17
2019-04-11T13:30:19.012Z,11.63
2019-04-11T13:33:13.128Z,11.60
2019-04-11T13:36:04.493Z,10.94
2019-04-11T13:38:45.160Z,11.10
2019-04-11T13:41:32.273Z,11.24
2019-04-11T13:44:25.958Z,11.41
2019-04-11T13:47:20.295Z,11.23
2019-04-11T13:49:51.949Z,11.29
2019-04-11T13:52:40.126Z,11.27
2019-04-11T13:55:29.768Z,11.19
2019-04-11T13:58:17.925Z,11.73
2019-04-11T14:00:50.988Z,11.49
2019-04-11T14:03:48.407Z,11.66
2019-04-11T14:06:33.516Z,11.92
2019-04-11T14:09:24.933Z,11.99
2019-04-11T14:11:55.596Z,11.43
2019-04-11T14:14:46.718Z,11.39
2019-04-11T14:17:34.947Z,11.69
2019-04-11T14:20:36.065Z,12.00
2019-04-11T14:23:31.425Z,11.52
2019-04-11T14:26:24.285Z,11.35
2019-04-11T14:29:18.564Z,11.27
2019-04-11T14:31:50.935Z,11.33
2019-04-11T14:34:39.258Z,11.65
2019-04-11T14:37:37.456Z,11.74
2019-04-11T14:40:10.835Z,11.42
2019-04-11T14:42:59.149Z,11.55
2019-04-11T14:45:46.518Z,11.69
2019-04-11T14:48:19.814Z,11.67
2019-04-11T14:51:06.748Z,11.80
2019-04-11T14:53:53.810Z,11.67
2019-04-11T14:56:23.456Z,11.65
2019-04-11T14:59:10.187Z,11.54
2019-04-11T15:01:40.476Z,11.70
2019-04-11T15:04:35.130Z,11.73
2019-04-11T15:07:04.373Z,11.56
2019-04-11T15:09:51.076Z,11.39
2019-04-11T15:12:22.815Z,11.47
2019-04-11T15:15:23.310Z,11.70
2019-04-11T15:17:55.926Z,11.49
2019-04-11T15:20:34.716Z,11.49
2019-04-11T15:23:08.053Z,11.46
2019-04-11T15:25:59.091Z,11.67
2019-04-11T15:28:35.530Z,11.45
2019-04-11T15:31:18.504Z,11.43
2019-04-11T15:34:05.354Z,11.68
2019-04-11T15:36:36.257Z,11.39
2019-04-11T15:39:44.275Z,11.68
2019-04-11T15:42:10.252Z,11.62
2019-04-11T15:44:58.362Z,11.40
2019-04-11T15:47:28.176Z,11.52
2019-04-11T15:50:16.542Z,11.67
2019-04-11T15:52:51.519Z,11.27
2019-04-11T15:55:58.059Z,11.42
2019-04-11T15:58:33.583Z,11.69
2019-04-11T16:01:27.620Z,11.48
2019-04-11T16:04:03.045Z,11.33
2019-04-11T16:06:54.697Z,11.31
2019-04-11T16:09:23.913Z,11.24
2019-04-11T16:12:03.854Z,11.21
2019-04-11T16:14:37.914Z,11.17
2019-04-11T16:17:28.854Z,11.16
2019-04-11T16:20:06.582Z,11.30
2019-04-11T16:23:00.825Z,11.17
2019-04-11T16:25:31.577Z,11.08
2019-04-11T16:28:25.883Z,11.19
2019-04-11T16:30:57.083Z,10.98
2019-04-11T16:34:05.043Z,11.01
2019-04-11T16:36:47.891Z,10.88
2019-04-11T16:39:50.136Z,10.88
2019-04-11T16:42:29.747Z,11.03
2019-04-11T16:45:25.096Z,10.85
2019-04-11T16:48:02.907Z,10.87
2019-04-11T16:50:32.517Z,10.87
2019-04-11T16:53:01.691Z,10.83
2019-04-11T16:55:30.892Z,10.78
2019-04-11T16:58:00.096Z,10.68
2019-04-11T17:00:29.429Z,10.61
2019-04-11T17:02:58.665Z,10.61
2019-04-11T17:05:32.858Z,10.56
2019-04-11T17:08:33.249Z,10.57
2019-04-11T17:11:09.574Z,10.56
2019-04-11T17:13:38.912Z,10.43
2019-04-11T17:16:11.511Z,10.45
2019-04-11T17:18:40.691Z,10.34
2019-04-11T17:21:10.490Z,10.20
2019-04-11T17:23:39.725Z,10.12
2019-04-11T17:26:10.362Z,10.10
2019-04-11T17:28:39.556Z,10.07
2019-04-11T17:31:08.713Z,10.03
2019-04-11T17:33:37.935Z,9.98
2019-04-11T17:36:08.318Z,9.89
2019-04-11T17:38:37.807Z,9.88
2019-04-11T17:41:11.082Z,9.87
2019-04-11T17:43:38.363Z,9.82
2019-04-11T17:46:07.650Z,9.71
2019-04-11T17:48:36.863Z,9.60
2019-04-11T17:51:06.338Z,9.54
2019-04-11T17:53:35.524Z,9.49
2019-04-11T17:56:04.748Z,9.49
2019-04-11T17:58:34.020Z,9.41
2019-04-11T18:01:05.424Z,9.34
2019-04-11T18:03:35.134Z,9.26
2019-04-11T18:06:04.407Z,9.20
2019-04-11T18:08:33.611Z,9.21
2019-04-11T18:11:02.847Z,9.16
2019-04-11T18:13:32.081Z,9.08
2019-04-11T18:16:01.902Z,9.04
2019-04-11T18:18:34.853Z,8.97
2019-04-11T18:21:02.465Z,8.92
2019-04-11T18:23:31.802Z,8.90
2019-04-11T18:26:00.985Z,8.84
2019-04-11T18:28:30.298Z,8.73
2019-04-11T18:30:59.494Z,8.75
2019-04-11T18:33:31.471Z,8.64
2019-04-11T18:36:02.202Z,8.57
2019-04-11T18:38:32.057Z,8.54
2019-04-11T18:41:01.823Z,8.50
2019-04-11T18:43:31.179Z,8.45
2019-04-11T18:46:00.520Z,8.39
2019-04-11T18:48:29.920Z,8.39
2019-04-11T18:50:59.131Z,8.34
2019-04-11T18:53:28.317Z,8.25
2019-04-11T18:56:01.644Z,8.22
2019-04-11T18:58:34.453Z,8.15
2019-04-11T19:01:08.832Z,8.08
2019-04-11T19:03:41.198Z,8.03
2019-04-11T19:06:12.859Z,8.03
2019-04-11T19:08:43.416Z,8.05
2019-04-11T19:11:15.625Z,8.03
2019-04-11T19:13:47.037Z,8.06
2019-04-11T19:16:17.476Z,7.99
2019-04-11T19:18:48.433Z,7.85
2019-04-11T19:21:21.012Z,7.90
2019-04-11T19:23:50.791Z,7.86
2019-04-11T19:26:23.839Z,7.87
2019-04-11T19:28:55.226Z,7.91
2019-04-11T19:31:28.191Z,7.76
2019-04-11T19:34:04.359Z,7.67
2019-04-11T19:36:33.194Z,7.72
2019-04-11T19:39:03.923Z,7.83
2019-04-11T19:41:33.836Z,7.75
2019-04-11T19:44:04.348Z,7.74
2019-04-11T19:46:33.869Z,7.76
2019-04-11T19:49:03.912Z,7.74
2019-04-11T19:51:35.628Z,7.66
2019-04-11T19:54:07.521Z,7.63
2019-04-11T19:56:52.780Z,7.56
2019-04-11T19:59:22.111Z,7.49
2019-04-11T20:01:53.255Z,7.39
2019-04-11T20:04:23.910Z,7.47
2019-04-11T20:06:53.693Z,7.45
2019-04-11T20:09:22.900Z,7.34
2019-04-11T20:11:52.128Z,7.40
2019-04-11T20:14:21.388Z,7.44
2019-04-11T20:16:52.052Z,7.47
2019-04-11T20:19:21.355Z,7.34
2019-04-11T20:21:52.324Z,7.24
2019-04-11T20:24:21.620Z,7.17
2019-04-11T20:26:50.867Z,7.02
2019-04-11T20:29:21.412Z,6.80
2019-04-11T20:31:51.523Z,6.89
2019-04-11T20:34:27.344Z,6.88
2019-04-11T20:36:52.289Z,6.86
2019-04-11T20:39:21.464Z,6.85
2019-04-11T20:41:53.251Z,6.88
2019-04-11T20:44:21.795Z,6.71
2019-04-11T20:46:50.963Z,6.66
2019-04-11T20:49:20.266Z,6.58
2019-04-11T20:51:49.447Z,6.62
2019-04-11T20:54:18.637Z,6.57
2019-04-11T20:56:48.974Z,6.55
2019-04-11T20:59:18.146Z,6.49
2019-04-11T21:01:47.378Z,6.42
2019-04-11T21:04:16.559Z,6.37
2019-04-11T21:06:45.735Z,6.30
2019-04-11T21:09:14.899Z,6.37
2019-04-11T21:11:44.267Z,6.36
2019-04-11T21:14:13.392Z,6.25
2019-04-11T21:16:42.588Z,6.14
2019-04-11T21:19:11.934Z,6.12
2019-04-11T21:21:41.101Z,6.20
2019-04-11T21:24:10.251Z,6.06
2019-04-11T21:26:39.512Z,5.91
2019-04-11T21:29:08.663Z,5.79
2019-04-11T21:31:37.944Z,5.66
2019-04-11T21:34:07.181Z,5.53
2019-04-11T21:36:36.371Z,5.39
2019-04-11T21:39:07.772Z,5.26
2019-04-11T21:41:36.966Z,5.19
2019-04-11T21:44:07.019Z,5.11
2019-04-11T21:46:38.160Z,5.29
2019-04-11T21:49:07.273Z,5.16
2019-04-11T21:51:36.571Z,5.07
2019-04-11T21:54:05.744Z,5.07
2019-04-11T21:56:34.933Z,5.03
2019-04-11T22:03:06.661Z,5.04
2019-04-11T22:05:35.622Z,4.96
2019-04-11T22:08:04.891Z,4.89
2019-04-11T22:10:34.020Z,4.79
2019-04-11T22:13:03.187Z,4.71
2019-04-11T22:15:32.582Z,4.72
2019-04-11T22:18:01.743Z,4.66
2019-04-11T22:20:30.891Z,4.61
2019-04-11T22:23:00.072Z,4.59
2019-04-11T22:25:29.220Z,4.56
2019-04-11T22:27:58.494Z,4.58
2019-04-11T22:30:27.649Z,4.49
2019-04-11T22:33:01.540Z,4.48
2019-04-11T22:35:30.926Z,4.41
2019-04-11T22:38:00.414Z,4.31
2019-04-11T22:40:31.503Z,4.32
2019-04-11T22:43:00.549Z,4.21
2019-04-11T22:45:29.701Z,4.16
2019-04-11T22:47:58.914Z,4.16
2019-04-11T22:50:28.112Z,4.09
2019-04-11T22:52:57.393Z,4.07
2019-04-11T22:55:26.535Z,4.03
2019-04-11T22:57:55.769Z,4.03
2019-04-11T23:00:25.073Z,3.99
2019-04-11T23:03:04.801Z,3.93
2019-04-11T23:05:34.014Z,3.90
2019-04-11T23:08:03.391Z,3.90
2019-04-11T23:10:32.622Z,3.81
2019-04-11T23:13:01.801Z,3.83
2019-04-11T23:15:32.060Z,3.73
2019-04-11T23:18:01.239Z,3.77
2019-04-11T23:20:30.460Z,3.80
2019-04-11T23:22:59.628Z,3.75
2019-04-11T23:25:28.858Z,3.75
2019-04-11T23:27:58.143Z,3.72
2019-04-11T23:30:27.327Z,3.68
2019-04-11T23:32:56.540Z,3.67
2019-04-11T23:35:25.794Z,3.63
2019-04-11T23:37:54.936Z,3.55
2019-04-11T23:40:24.174Z,3.46
2019-04-11T23:42:53.420Z,3.41
2019-04-11T23:45:25.135Z,3.41
2019-04-11T23:47:54.496Z,3.41
2019-04-11T23:50:25.257Z,3.39
2019-04-11T23:52:56.962Z,3.39
2019-04-11T23:55:25.446Z,3.31
2019-04-11T23:57:54.610Z,3.34
